CheckWX is a tool to help pilots better visualize weather data.  It is not intended as a substitute for an official pre-flight weather briefing.

07:35:02 UTC

VTPH METAR
Hua Hin Airport
Hua Hin, Thailand
Current

35 mins ago

VTPH 150700Z 04010KT 9999 FEW028 30/21 Q1011 NOSIG
Observed
Nov-15 @ 07:00 UTC
Wind
  • 040° at 10 KTS
Visibility
10,000+ meters
Flight Rules
VFR
Cloud Levels
  • Few at 2,800' AGL
Temperature
30°C / 86°F
Dewpoint
21°C / 70°F
Heat Index
33°C / 91°F
Humidity
59%
Altimeter
29.85" Hg
Pressure
1010.92 hPa
Previous

2 hours ago

VTPH 150600Z 03010KT 360V060 9999 FEW028 30/22 Q1012 NOSIG
Observed
Nov-15 @ 06:00 UTC
Wind
  • 030° at 10 KTS
Visibility
10,000+ meters
Flight Rules
VFR
Cloud Levels
  • Few at 2,800' AGL
Temperature
30°C / 86°F
Dewpoint
22°C / 72°F
Heat Index
33°C / 92°F
Humidity
62%
Altimeter
29.88" Hg
Pressure
1011.92 hPa
Previous

3 hours ago

VTPH 150500Z 03010KT 9999 FEW024 30/22 Q1012 NOSIG
Observed
Nov-15 @ 05:00 UTC
Wind
  • 030° at 10 KTS
Visibility
10,000+ meters
Flight Rules
VFR
Cloud Levels
  • Few at 2,400' AGL
Temperature
30°C / 86°F
Dewpoint
22°C / 72°F
Heat Index
33°C / 92°F
Humidity
62%
Altimeter
29.88" Hg
Pressure
1011.92 hPa